Time;durP1;ratioP1;P1;durP2;ratioP2;P2;SDS_P1;SDS_P2;PMS_P1;PMS_P2;Temp;Humidity;BMP_temperature;BMP_pressure;BME280_temperature;BME280_humidity;BME280_pressure;Samples;Min_cycle;Max_cycle;Signal;HPM_P1;HPM_P2
2023/01/26 00:01:20;;;;;;;58.88;22.42;;;;;;;-1.97;100.00;101502.97;6308303;28;20081;-85
2023/01/26 00:04:22;;;;;;;62.92;22.10;;;;;;;-2.05;100.00;101509.84;6307427;28;20083;-85
2023/01/26 00:07:24;;;;;;;66.07;23.63;;;;;;;-2.04;100.00;101493.75;6309379;28;20069;-86
2023/01/26 00:10:25;;;;;;;70.50;22.75;;;;;;;-1.99;100.00;101502.16;6290661;28;20044;-85
2023/01/26 00:13:27;;;;;;;76.90;24.23;;;;;;;-1.92;100.00;101490.22;6303622;28;20052;-85
2023/01/26 00:16:29;;;;;;;69.50;21.58;;;;;;;-1.97;100.00;101489.44;6306854;28;20473;-85
2023/01/26 00:19:31;;;;;;;71.65;22.83;;;;;;;-1.94;100.00;101484.34;6292853;28;20322;-85
2023/01/26 00:22:32;;;;;;;68.25;21.27;;;;;;;-1.86;100.00;101485.09;6307443;28;20117;-85
2023/01/26 00:25:38;;;;;;;61.67;21.35;;;;;;;-1.87;100.00;101477.50;6307386;28;20270;-85
2023/01/26 00:28:40;;;;;;;59.72;22.42;;;;;;;-1.86;100.00;101458.88;6304687;28;20044;-85
2023/01/26 00:31:42;;;;;;;66.35;21.98;;;;;;;-1.81;100.00;101462.22;6307529;28;20043;-85
2023/01/26 00:34:44;;;;;;;62.80;20.98;;;;;;;-1.75;100.00;101467.19;6307466;28;20048;-85
2023/01/26 00:37:45;;;;;;;61.38;22.58;;;;;;;-1.67;100.00;101475.53;6305022;28;20510;-85
2023/01/26 00:40:50;;;;;;;67.05;23.35;;;;;;;-1.68;100.00;101458.66;6301415;28;20043;-85
2023/01/26 00:43:54;;;;;;;63.45;21.77;;;;;;;-1.65;100.00;101461.13;6307534;28;20055;-85
2023/01/26 00:46:55;;;;;;;68.13;23.33;;;;;;;-1.61;100.00;101456.88;6305683;28;20036;-85
2023/01/26 00:49:57;;;;;;;68.03;24.48;;;;;;;-1.62;100.00;101452.63;6305389;28;20073;-85
2023/01/26 00:53:02;;;;;;;73.35;23.40;;;;;;;-1.66;100.00;101449.31;6305609;28;20032;-85
2023/01/26 00:56:04;;;;;;;69.15;23.83;;;;;;;-1.60;100.00;101444.13;6306431;28;20050;-85
2023/01/26 00:59:07;;;;;;;74.82;24.05;;;;;;;-1.58;100.00;101451.75;6297465;28;20126;-85
2023/01/26 01:02:10;;;;;;;72.65;23.20;;;;;;;-1.60;100.00;101446.69;6303384;28;20074;-85
2023/01/26 01:05:12;;;;;;;78.05;24.15;;;;;;;-1.57;100.00;101448.34;6308128;28;20044;-86
2023/01/26 01:08:13;;;;;;;67.03;21.48;;;;;;;-1.57;100.00;101436.47;6308748;28;20131;-85
2023/01/26 01:11:15;;;;;;;69.07;23.27;;;;;;;-1.58;100.00;101449.22;6302865;28;20048;-85
2023/01/26 01:14:17;;;;;;;65.03;23.30;;;;;;;-1.59;100.00;101433.16;6304072;28;20444;-85
2023/01/26 01:17:19;;;;;;;72.15;22.90;;;;;;;-1.58;100.00;101428.91;6300451;28;20101;-85
2023/01/26 01:20:21;;;;;;;62.22;22.40;;;;;;;-1.49;100.00;101427.91;6305942;28;20108;-85
2023/01/26 01:23:27;;;;;;;63.05;21.85;;;;;;;-1.48;100.00;101429.63;6302457;28;20040;-85
2023/01/26 01:26:29;;;;;;;58.10;20.67;;;;;;;-1.49;100.00;101433.00;6303717;28;20073;-85
2023/01/26 01:29:31;;;;;;;59.72;20.02;;;;;;;-1.45;100.00;101435.47;6303186;28;20040;-85
2023/01/26 01:32:39;;;;;;;52.80;20.45;;;;;;;-1.43;100.00;101420.22;6310390;28;20176;-86
2023/01/26 01:35:41;;;;;;;54.83;18.75;;;;;;;-1.41;100.00;101431.19;6305738;28;20040;-85
2023/01/26 01:38:44;;;;;;;58.50;17.65;;;;;;;-1.42;100.00;101420.19;6307567;28;20555;-85
2023/01/26 01:41:46;;;;;;;55.90;17.77;;;;;;;-1.42;100.00;101419.34;6307222;28;20173;-85
2023/01/26 01:45:28;;;;;;;52.13;17.13;;;;;;;-1.42;100.00;101430.34;6310776;28;20047;-85
2023/01/26 01:48:36;;;;;;;62.58;19.63;;;;;;;-1.42;100.00;101416.81;6305737;28;20121;-86
2023/01/26 01:51:44;;;;;;;52.53;19.23;;;;;;;-1.37;100.00;101407.41;6311057;28;20558;-85
2023/01/26 01:54:55;;;;;;;56.08;18.98;;;;;;;-1.37;100.00;101407.41;6308084;28;20561;-85
2023/01/26 01:58:00;;;;;;;47.13;17.40;;;;;;;-1.39;100.00;101398.97;6312518;27;20122;-85
2023/01/26 02:01:02;;;;;;;48.08;18.08;;;;;;;-1.41;100.00;101393.94;6307752;28;20063;-85
2023/01/26 02:04:05;;;;;;;46.63;15.75;;;;;;;-1.42;100.00;101391.41;6310823;28;20461;-85
2023/01/26 02:07:09;;;;;;;53.33;17.65;;;;;;;-1.42;100.00;101389.72;6310226;28;20043;-85
2023/01/26 02:10:21;;;;;;;46.22;16.30;;;;;;;-1.40;100.00;101382.09;6309333;28;20048;-85
2023/01/26 02:13:23;;;;;;;44.22;16.67;;;;;;;-1.39;100.00;101391.38;6308841;28;20835;-85
2023/01/26 02:16:25;;;;;;;49.17;15.70;;;;;;;-1.41;100.00;101388.88;6307970;28;20545;-85
2023/01/26 02:19:48;;;;;;;48.25;16.17;;;;;;;-1.38;100.00;101382.91;6307491;28;20494;-86
2023/01/26 02:22:57;;;;;;;42.42;15.13;;;;;;;-1.39;100.00;101384.63;6284252;28;20044;-85
2023/01/26 02:26:15;;;;;;;55.95;16.17;;;;;;;-1.38;100.00;101376.13;6310149;28;20044;-85
2023/01/26 02:29:17;;;;;;;46.70;16.98;;;;;;;-1.38;100.00;101380.38;6310270;28;20044;-85
2023/01/26 02:32:19;;;;;;;51.22;15.90;;;;;;;-1.33;100.00;101376.06;6308400;28;20036;-85
2023/01/26 02:35:21;;;;;;;47.78;16.63;;;;;;;-1.32;100.00;101367.56;6308853;28;20139;-85
2023/01/26 02:38:28;;;;;;;52.42;17.85;;;;;;;-1.36;100.00;101369.31;6308818;28;20498;-85
2023/01/26 02:44:50;;;;;;;49.77;16.33;;;;;;;-1.36;100.00;101374.41;6295075;28;20109;-85
2023/01/26 02:47:52;;;;;;;44.67;17.55;;;;;;;-1.29;100.00;101380.22;6307810;28;20036;-85
2023/01/26 02:50:53;;;;;;;56.83;18.02;;;;;;;-1.32;100.00;101378.56;6307832;28;20078;-85
2023/01/26 02:53:56;;;;;;;55.17;18.38;;;;;;;-1.35;100.00;101370.97;6310445;28;20088;-85
2023/01/26 02:56:58;;;;;;;58.22;19.73;;;;;;;-1.32;100.00;101373.50;6302247;28;20048;-85
2023/01/26 03:00:03;;;;;;;53.55;19.60;;;;;;;-1.30;100.00;101370.91;6290265;28;20044;-86
2023/01/26 03:03:15;;;;;;;51.38;17.67;;;;;;;-1.23;100.00;101377.56;6310124;28;20044;-85
2023/01/26 03:06:17;;;;;;;58.13;18.33;;;;;;;-1.23;100.00;101371.66;6295383;28;20036;-85
2023/01/26 03:09:19;;;;;;;53.33;16.48;;;;;;;-1.18;100.00;101374.97;6294045;28;20048;-85
2023/01/26 03:12:22;;;;;;;52.58;18.10;;;;;;;-1.18;100.00;101373.25;6308943;28;20122;-85
2023/01/26 03:15:42;;;;;;;61.70;19.63;;;;;;;-1.22;100.00;101381.78;6303220;28;20708;-85
2023/01/26 03:29:07;;;;;;;62.67;19.27;;;;;;;-1.41;100.00;101371.09;6206306;28;20053;-85
2023/01/26 03:32:09;;;;;;;53.30;18.48;;;;;;;-1.40;100.00;101370.22;6202921;28;20144;-85
2023/01/26 03:35:14;;;;;;;52.58;18.38;;;;;;;-1.38;100.00;101368.50;6185853;28;20152;-85
2023/01/26 03:38:17;;;;;;;52.63;16.88;;;;;;;-1.39;100.00;101378.66;6192872;28;20057;-85
2023/01/26 03:58:13;;;;;;;53.75;17.10;;;;;;;-1.43;100.00;101351.66;6309099;28;20032;-86
2023/01/26 04:01:26;;;;;;;45.08;16.05;;;;;;;-1.38;100.00;101357.50;6305514;28;20631;-86
2023/01/26 04:08:21;;;;;;;48.35;15.90;;;;;;;-1.33;100.00;101366.72;6294539;28;20440;-86
2023/01/26 04:11:27;;;;;;;49.13;16.42;;;;;;;-1.35;100.00;101357.47;6305467;28;20086;-86
2023/01/26 04:21:33;;;;;;;50.33;15.82;;;;;;;-1.37;100.00;101354.09;6323951;28;20052;-86
2023/01/26 04:24:43;;;;;;;51.72;17.38;;;;;;;-1.35;100.00;101354.91;6282975;28;20048;-86
2023/01/26 04:27:45;;;;;;;59.20;19.27;;;;;;;-1.28;100.00;101355.66;6318753;28;20044;-86
2023/01/26 04:30:48;;;;;;;50.55;17.83;;;;;;;-1.27;100.00;101347.16;6308654;28;20110;-86
2023/01/26 04:33:50;;;;;;;48.08;16.27;;;;;;;-1.30;100.00;101351.44;6307209;28;20589;-86
2023/01/26 04:36:52;;;;;;;50.65;16.42;;;;;;;-1.32;100.00;101340.47;6305684;28;20461;-86
2023/01/26 04:39:57;;;;;;;45.38;16.15;;;;;;;-1.34;100.00;101332.06;6305686;28;20058;-87
2023/01/26 04:42:59;;;;;;;44.42;17.92;;;;;;;-1.34;100.00;101331.22;6306688;28;20040;-87
2023/01/26 04:46:06;;;;;;;52.30;16.45;;;;;;;-1.30;100.00;101332.81;6307902;28;20362;-86
2023/01/26 04:49:09;;;;;;;52.90;16.73;;;;;;;-1.32;100.00;101339.63;6307340;28;20417;-87
2023/01/26 04:52:12;;;;;;;51.75;17.38;;;;;;;-1.27;100.00;101342.09;6307414;28;20048;-87
2023/01/26 04:55:14;;;;;;;47.45;18.02;;;;;;;-1.28;100.00;101335.34;6308941;28;20044;-86
2023/01/26 04:58:17;;;;;;;53.75;18.45;;;;;;;-1.28;100.00;101336.19;6309081;28;20155;-87
2023/01/26 05:01:20;;;;;;;56.85;17.63;;;;;;;-1.33;100.00;101345.56;6307786;28;20036;-87
2023/01/26 05:04:22;;;;;;;54.20;17.80;;;;;;;-1.28;100.00;101340.44;6308054;28;20048;-87
2023/01/26 05:07:24;;;;;;;53.75;17.48;;;;;;;-1.24;100.00;101339.50;6296874;28;20040;-87
2023/01/26 05:10:26;;;;;;;54.17;19.20;;;;;;;-1.26;100.00;101334.47;6305228;28;20053;-86
2023/01/26 05:13:48;;;;;;;52.15;19.00;;;;;;;-1.28;100.00;101328.56;6300454;28;20047;-86
2023/01/26 05:16:57;;;;;;;53.70;17.98;;;;;;;-1.29;100.00;101329.44;6309221;28;20049;-86
2023/01/26 05:20:21;;;;;;;51.65;16.98;;;;;;;-1.30;100.00;101328.56;6308968;28;20047;-86
2023/01/26 05:23:39;;;;;;;55.55;18.45;;;;;;;-1.27;100.00;101329.41;6305723;28;20052;-86
2023/01/26 05:30:38;;;;;;;54.08;18.10;;;;;;;-1.27;100.00;101331.94;6189963;28;20057;-87
2023/01/26 05:33:39;;;;;;;54.83;17.58;;;;;;;-1.26;100.00;101329.38;6198838;28;20421;-87
2023/01/26 05:36:43;;;;;;;56.08;18.50;;;;;;;-1.21;100.00;101330.13;6189816;28;20080;-87
2023/01/26 05:39:46;;;;;;;57.22;19.42;;;;;;;-1.22;100.00;101333.53;6196061;28;20058;-87
2023/01/26 05:42:47;;;;;;;60.95;19.50;;;;;;;-1.27;100.00;101326.84;6170946;28;20053;-87
2023/01/26 05:46:19;;;;;;;49.67;17.67;;;;;;;-1.23;100.00;101328.47;6169242;28;20050;-87
2023/01/26 05:49:21;;;;;;;59.55;19.58;;;;;;;-1.31;100.00;101341.31;6156215;28;20070;-87
2023/01/26 05:52:24;;;;;;;53.65;17.73;;;;;;;-1.33;100.00;101337.97;6173078;28;20051;-87
2023/01/26 05:55:27;;;;;;;52.00;18.90;;;;;;;-1.34;100.00;101347.28;6142103;28;20043;-87
2023/01/26 05:58:29;;;;;;;53.25;19.48;;;;;;;-1.35;100.00;101349.84;6146304;28;20158;-87
2023/01/26 06:01:31;;;;;;;56.15;20.27;;;;;;;-1.35;100.00;101353.22;6149597;28;20120;-87
2023/01/26 06:04:37;;;;;;;59.90;20.45;;;;;;;-1.33;100.00;101348.13;6168137;28;20406;-87
2023/01/26 06:07:39;;;;;;;57.92;20.15;;;;;;;-1.28;100.00;101343.78;6210632;28;20045;-86
2023/01/26 06:10:59;;;;;;;56.47;20.52;;;;;;;-1.34;100.00;101354.06;6252351;28;20140;-87
2023/01/26 06:14:14;;;;;;;58.80;20.15;;;;;;;-1.28;100.00;101345.50;6239436;28;20571;-86
2023/01/26 06:17:17;;;;;;;52.30;18.50;;;;;;;-1.31;100.00;101344.69;6227278;28;20588;-86
2023/01/26 06:20:21;;;;;;;62.67;20.25;;;;;;;-1.33;100.00;101335.41;6242925;28;20629;-86
2023/01/26 06:23:30;;;;;;;55.15;19.52;;;;;;;-1.36;100.00;101345.63;6282430;28;20562;-86
2023/01/26 06:26:35;;;;;;;55.83;17.83;;;;;;;-1.38;100.00;101334.66;6310171;28;20120;-87
2023/01/26 06:29:37;;;;;;;54.15;19.20;;;;;;;-1.33;100.00;101337.97;6308668;28;20128;-86
2023/01/26 06:32:39;;;;;;;52.42;19.25;;;;;;;-1.35;100.00;101339.69;6309755;28;20085;-87
2023/01/26 06:35:41;;;;;;;54.67;18.52;;;;;;;-1.28;100.00;101336.19;6307202;28;20520;-86
2023/01/26 06:38:51;;;;;;;45.28;17.30;;;;;;;-1.24;100.00;101340.34;6310813;28;20047;-86
2023/01/26 06:41:57;;;;;;;53.72;18.60;;;;;;;-1.24;100.00;101342.91;6298593;28;20097;-86
2023/01/26 06:44:59;;;;;;;57.25;19.08;;;;;;;-1.24;100.00;101344.56;6309212;28;20502;-86
2023/01/26 06:48:01;;;;;;;52.63;18.75;;;;;;;-1.23;100.00;101346.25;6311581;28;20058;-86
2023/01/26 06:51:44;;;;;;;50.75;17.55;;;;;;;-1.16;100.00;101348.66;6309569;28;20052;-86
2023/01/26 06:54:48;;;;;;;54.58;17.92;;;;;;;-1.20;100.00;101346.22;6308238;28;20056;-86
2023/01/26 06:57:55;;;;;;;48.72;16.42;;;;;;;-1.18;100.00;101345.31;6308353;28;20052;-87
2023/01/26 07:01:25;;;;;;;49.22;16.52;;;;;;;-1.19;100.00;101346.19;6307710;28;20048;-86
2023/01/26 07:04:28;;;;;;;51.95;17.27;;;;;;;-1.19;100.00;101347.88;6306491;28;20428;-86
2023/01/26 07:07:31;;;;;;;57.33;20.02;;;;;;;-1.17;100.00;101349.56;6308863;28;20042;-86
2023/01/26 07:10:34;;;;;;;51.53;18.55;;;;;;;-1.14;100.00;101361.34;6307624;28;20044;-86
2023/01/26 07:13:36;;;;;;;51.50;18.23;;;;;;;-1.15;100.00;101359.66;6311312;28;20521;-86
2023/01/26 07:16:38;;;;;;;51.85;19.42;;;;;;;-1.15;100.00;101363.03;6306629;28;20535;-86
2023/01/26 07:19:40;;;;;;;54.72;19.48;;;;;;;-1.12;100.00;101368.09;6305237;28;20122;-86
2023/01/26 07:22:41;;;;;;;54.95;17.52;;;;;;;-1.11;100.00;101368.91;6288012;28;20044;-87
2023/01/26 07:25:43;;;;;;;67.72;20.83;;;;;;;-1.09;100.00;101365.50;6290127;28;20428;-86
2023/01/26 07:28:45;;;;;;;55.40;19.60;;;;;;;-1.03;100.00;101364.53;6308020;28;20108;-86
2023/01/26 07:31:47;;;;;;;56.60;19.65;;;;;;;-1.01;100.00;101369.59;6306502;28;20079;-87
2023/01/26 07:34:49;;;;;;;54.53;20.10;;;;;;;-0.98;100.00;101372.91;6300673;28;20182;-87
2023/01/26 07:37:51;;;;;;;57.17;19.23;;;;;;;-0.98;100.00;101372.91;6303234;28;20040;-87
2023/01/26 07:40:52;;;;;;;55.30;19.25;;;;;;;-0.93;100.00;101365.22;6301217;28;20398;-87
2023/01/26 07:43:55;;;;;;;49.67;18.60;;;;;;;-0.94;100.00;101361.84;6309632;28;20040;-87
2023/01/26 07:46:57;;;;;;;52.45;19.83;;;;;;;-0.90;100.00;101365.16;6303083;28;20131;-87
2023/01/26 07:49:59;;;;;;;52.75;19.17;;;;;;;-0.89;100.00;101367.69;6306367;28;20369;-87
2023/01/26 07:53:01;;;;;;;52.72;19.67;;;;;;;-0.88;100.00;101376.13;6305639;28;20119;-87
2023/01/26 07:56:14;;;;;;;53.03;18.30;;;;;;;-0.83;100.00;101371.81;6303978;28;20036;-87
2023/01/26 07:59:16;;;;;;;54.45;18.63;;;;;;;-0.79;100.00;101375.16;6302230;28;20112;-87
2023/01/26 08:02:18;;;;;;;56.33;18.30;;;;;;;-0.69;100.00;101371.56;6289681;28;20040;-87
2023/01/26 08:05:20;;;;;;;55.95;19.58;;;;;;;-0.65;100.00;101373.16;6303169;28;20178;-87
2023/01/26 08:08:22;;;;;;;52.53;16.67;;;;;;;-0.64;100.00;101367.22;6309762;28;20494;-87
2023/01/26 08:11:24;;;;;;;48.85;17.70;;;;;;;-0.62;100.00;101373.13;6311395;28;20063;-87
2023/01/26 08:14:26;;;;;;;56.70;18.45;;;;;;;-0.59;100.00;101378.16;6321950;28;20489;-87
2023/01/26 08:17:45;;;;;;;60.65;18.95;;;;;;;-0.57;100.00;101362.84;6303143;28;20092;-88
2023/01/26 08:20:54;;;;;;;50.42;18.80;;;;;;;-0.58;100.00;101369.66;6304086;28;20170;-87
2023/01/26 08:24:00;;;;;;;48.83;17.90;;;;;;;-0.56;100.00;101370.47;6305710;28;20067;-88
2023/01/26 08:27:02;;;;;;;50.55;17.85;;;;;;;-0.57;100.00;101381.50;6299999;28;20123;-88
2023/01/26 08:30:05;;;;;;;48.70;17.27;;;;;;;-0.57;100.00;101380.66;6301895;28;20048;-88
2023/01/26 08:33:07;;;;;;;50.97;16.90;;;;;;;-0.61;100.00;101379.88;6295462;28;20041;-88
2023/01/26 08:36:11;;;;;;;54.13;18.17;;;;;;;-0.60;100.00;101373.09;6309306;28;20081;-88
2023/01/26 08:39:13;;;;;;;44.22;16.83;;;;;;;-0.56;100.00;101382.34;6305968;28;20147;-87
2023/01/26 08:42:15;;;;;;;47.97;17.05;;;;;;;-0.57;100.00;101384.06;6302867;28;20453;-87
2023/01/26 08:45:17;;;;;;;49.00;17.30;;;;;;;-0.58;100.00;101382.34;6306792;28;20036;-88
2023/01/26 08:48:19;;;;;;;47.42;18.10;;;;;;;-0.55;100.00;101378.91;6309593;28;20047;-88
2023/01/26 08:51:21;;;;;;;54.83;18.98;;;;;;;-0.54;100.00;101378.06;6307525;28;20362;-87
2023/01/26 08:54:23;;;;;;;45.97;17.30;;;;;;;-0.52;100.00;101386.47;6306711;28;20040;-87
2023/01/26 08:57:26;;;;;;;46.47;16.88;;;;;;;-0.51;100.00;101389.00;6309001;28;20048;-87
2023/01/26 09:00:28;;;;;;;47.28;17.20;;;;;;;-0.54;100.00;101383.16;6307126;28;20100;-87
2023/01/26 09:03:30;;;;;;;56.50;19.20;;;;;;;-0.51;100.00;101385.63;6302570;28;20147;-87
2023/01/26 09:06:32;;;;;;;50.58;18.50;;;;;;;-0.49;100.00;101382.19;6301192;28;20592;-87
2023/01/26 09:09:34;;;;;;;43.13;16.65;;;;;;;-0.45;100.00;101385.50;6307457;28;20044;-87
2023/01/26 09:12:36;;;;;;;51.83;18.77;;;;;;;-0.39;100.00;101382.03;6301594;28;20051;-87
2023/01/26 09:15:41;;;;;;;45.58;16.15;;;;;;;-0.37;100.00;101381.13;6306913;28;20036;-86
2023/01/26 09:18:43;;;;;;;48.35;17.23;;;;;;;-0.36;100.00;101372.59;6305662;28;20051;-87
2023/01/26 09:21:44;;;;;;;47.53;16.27;;;;;;;-0.30;100.00;101382.69;6299246;28;20108;-87
2023/01/26 09:24:46;;;;;;;49.58;17.10;;;;;;;-0.22;100.00;101390.16;6307477;28;20464;-87
2023/01/26 09:27:48;;;;;;;48.30;17.60;;;;;;;-0.19;100.00;101379.06;6301248;28;20429;-86
2023/01/26 09:30:49;;;;;;;47.83;17.45;;;;;;;-0.15;100.00;101378.97;6294583;28;20098;-86
2023/01/26 09:33:51;;;;;;;44.40;18.20;;;;;;;-0.13;100.00;101371.31;6299621;28;20048;-86
2023/01/26 09:36:53;;;;;;;48.08;16.33;;;;;;;-0.12;100.00;101371.28;6302333;28;20039;-86
2023/01/26 09:39:55;;;;;;;44.90;16.10;;;;;;;-0.11;100.00;101383.13;6304579;28;20130;-85
2023/01/26 09:43:20;;;;;;;44.28;16.10;;;;;;;-0.08;100.00;101379.69;6300728;28;20045;-85
2023/01/26 09:47:01;;;;;;;53.00;18.30;;;;;;;-0.02;100.00;101377.00;6316624;28;20063;-86
2023/01/26 09:50:18;;;;;;;48.78;18.02;;;;;;;-0.08;100.00;101362.69;6305125;28;20563;-86
2023/01/26 09:53:45;;;;;;;50.97;18.40;;;;;;;-0.05;100.00;101365.19;6308195;28;20105;-87
2023/01/26 09:56:47;;;;;;;45.40;18.05;;;;;;;-0.01;100.00;101358.31;6301614;28;20055;-87
2023/01/26 09:59:57;;;;;;;48.03;17.45;;;;;;;0.02;100.00;101360.78;6309059;28;20036;-87
2023/01/26 10:03:12;;;;;;;45.67;18.27;;;;;;;-0.02;100.00;101364.28;6305976;28;20032;-87
2023/01/26 10:06:27;;;;;;;41.17;16.15;;;;;;;-0.17;100.00;101356.97;6304056;28;20402;-87
2023/01/26 10:09:44;;;;;;;44.28;16.20;;;;;;;-0.20;100.00;101351.94;6303829;28;20578;-88
2023/01/26 10:12:50;;;;;;;44.65;17.10;;;;;;;-0.19;100.00;101351.09;6304555;28;20098;-88
2023/01/26 10:15:58;;;;;;;39.30;16.48;;;;;;;-0.13;100.00;101346.69;6302193;28;20497;-88
2023/01/26 10:19:05;;;;;;;41.03;15.63;;;;;;;0.02;100.00;101348.06;6305420;28;20439;-88
2023/01/26 10:22:42;;;;;;;38.90;16.10;;;;;;;-0.02;100.00;101359.19;6306560;28;20139;-88
2023/01/26 10:25:45;;;;;;;38.58;15.00;;;;;;;0.03;100.00;101352.31;6308702;28;20510;-88
2023/01/26 10:28:51;;;;;;;38.70;16.17;;;;;;;-0.05;100.00;101346.53;6290511;28;20405;-89
2023/01/26 10:31:54;;;;;;;37.75;15.13;;;;;;;0.03;100.00;101341.28;6305321;28;20119;-89
2023/01/26 10:34:56;;;;;;;36.85;14.60;;;;;;;0.05;100.00;101349.69;6306756;28;20126;-89
2023/01/26 10:37:58;;;;;;;33.58;14.30;;;;;;;-0.01;100.00;101335.41;6299725;28;20052;-89
2023/01/26 10:41:20;;;;;;;39.13;14.82;;;;;;;0.05;100.00;101324.25;6300388;28;20043;-90
2023/01/26 10:44:35;;;;;;;36.20;13.30;;;;;;;0.10;100.00;101320.75;6304300;28;20032;-89
2023/01/26 10:47:38;;;;;;;33.08;14.63;;;;;;;0.24;100.00;101315.31;6304562;28;20083;-90
2023/01/26 10:50:41;;;;;;;37.53;15.30;;;;;;;0.33;100.00;101314.28;6299083;28;20044;-90
2023/01/26 10:53:43;;;;;;;35.50;13.77;;;;;;;0.37;100.00;101311.63;6305412;28;20576;-91
2023/01/26 10:56:49;;;;;;;36.10;14.13;;;;;;;0.42;100.00;101311.50;6309690;28;20032;-91
2023/01/26 11:00:08;;;;;;;36.53;14.18;;;;;;;0.47;100.00;101307.13;6306827;28;20036;-90
2023/01/26 11:03:13;;;;;;;34.35;13.93;;;;;;;0.59;100.00;101304.28;6308728;28;20043;-90
2023/01/26 11:06:17;;;;;;;33.63;13.35;;;;;;;0.61;100.00;101297.44;6306225;28;20075;-90
2023/01/26 11:09:30;;;;;;;36.53;14.48;;;;;;;0.61;100.00;101300.00;6309182;28;20039;-90
2023/01/26 11:12:32;;;;;;;33.72;13.43;;;;;;;0.62;100.00;101296.59;6305318;28;20048;-90
2023/01/26 11:15:40;;;;;;;36.20;14.70;;;;;;;0.61;100.00;101291.53;6304920;28;20043;-90
2023/01/26 11:19:12;;;;;;;34.85;13.73;;;;;;;0.53;100.00;101296.81;6308092;28;20043;-90
2023/01/26 11:22:36;;;;;;;36.90;13.80;;;;;;;0.42;100.00;101291.13;6305430;28;20405;-90
2023/01/26 11:26:09;;;;;;;37.70;14.00;;;;;;;0.38;100.00;101292.94;6295376;28;20044;-90
2023/01/26 11:29:34;;;;;;;32.88;13.00;;;;;;;0.26;100.00;101289.84;6307559;28;20035;-90
2023/01/26 11:32:54;;;;;;;36.55;15.23;;;;;;;0.21;100.00;101295.03;6306627;28;20044;-90
2023/01/26 11:36:04;;;;;;;39.80;15.05;;;;;;;0.18;100.00;101290.84;6300955;28;20047;-91
2023/01/26 11:39:30;;;;;;;37.55;14.38;;;;;;;0.09;100.00;101285.97;6305288;28;20387;-91
2023/01/26 11:43:07;;;;;;;37.13;15.35;;;;;;;0.06;100.00;101282.69;6301924;28;20044;-91
2023/01/26 11:46:37;;;;;;;40.22;15.23;;;;;;;0.07;100.00;101277.53;6306048;28;20041;-92
2023/01/26 11:49:52;;;;;;;39.70;14.88;;;;;;;0.17;100.00;101275.59;6314769;28;20047;-91
2023/01/26 11:53:16;;;;;;;36.97;14.90;;;;;;;0.22;100.00;101266.16;6306942;28;20051;-91
2023/01/26 11:56:49;;;;;;;43.30;15.55;;;;;;;0.28;100.00;101270.28;6308985;28;20047;-92
2023/01/26 12:00:13;;;;;;;38.50;15.10;;;;;;;0.29;100.00;101274.50;6309172;28;20039;-92
2023/01/26 12:03:40;;;;;;;39.25;14.35;;;;;;;0.33;100.00;101269.28;6291117;28;20048;-91
2023/01/26 12:06:45;;;;;;;44.10;16.20;;;;;;;0.33;100.00;101273.53;6307047;28;20071;-92
2023/01/26 12:09:51;;;;;;;40.60;14.95;;;;;;;0.37;100.00;101270.91;6300554;28;20047;-92
2023/01/26 12:13:05;;;;;;;38.35;14.88;;;;;;;0.31;100.00;101273.56;6307613;28;20050;-92
2023/01/26 12:16:20;;;;;;;38.25;14.30;;;;;;;0.17;100.00;101265.44;6307766;28;20380;-91
2023/01/26 12:19:36;;;;;;;39.85;15.43;;;;;;;0.18;100.00;101260.31;6305043;28;20040;-91
2023/01/26 12:22:48;;;;;;;43.42;16.42;;;;;;;0.19;100.00;101256.88;6307160;28;20048;-92
2023/01/26 12:25:55;;;;;;;40.00;14.43;;;;;;;0.08;100.00;101255.47;6302913;28;20044;-91
2023/01/26 12:29:17;;;;;;;44.17;15.40;;;;;;;0.02;100.00;101259.00;6308361;28;20201;-92
2023/01/26 12:32:21;;;;;;;42.20;16.13;;;;;;;-0.03;100.00;101256.53;6306969;28;20585;-92
2023/01/26 12:35:44;;;;;;;44.83;15.15;;;;;;;-0.03;100.00;101255.72;6305078;28;20524;-92
2023/01/26 12:39:12;;;;;;;38.55;15.48;;;;;;;-0.02;100.00;101252.31;6303281;28;20386;-92
2023/01/26 12:42:52;;;;;;;36.65;14.48;;;;;;;0.01;100.00;101252.25;6304983;28;20059;-92
2023/01/26 12:45:55;;;;;;;38.58;15.55;;;;;;;-0.07;100.00;101244.78;6306287;28;20489;-91
2023/01/26 12:49:14;;;;;;;33.20;13.20;;;;;;;-0.03;100.00;101246.38;6298861;28;20490;-91
2023/01/26 12:52:24;;;;;;;35.30;12.48;;;;;;;-0.04;100.00;101244.72;6301722;28;20409;-92
2023/01/26 12:55:47;;;;;;;36.40;13.73;;;;;;;0.04;100.00;101231.78;6296935;28;20051;-91
2023/01/26 12:58:52;;;;;;;39.70;14.75;;;;;;;-0.05;100.00;101224.38;6309729;28;20044;-92
2023/01/26 13:01:55;;;;;;;37.08;14.70;;;;;;;-0.10;100.00;101227.06;6304914;28;20097;-91
2023/01/26 13:04:59;;;;;;;35.70;13.77;;;;;;;-0.01;100.00;101223.44;6301407;28;20482;-91
2023/01/26 13:08:29;;;;;;;39.75;13.93;;;;;;;0.01;100.00;101223.41;6282218;28;20099;-91
2023/01/26 13:11:44;;;;;;;36.53;13.57;;;;;;;-0.04;100.00;101223.50;6303024;28;20048;-91
2023/01/26 13:14:58;;;;;;;40.22;14.52;;;;;;;0.01;100.00;101224.25;6307524;28;20068;-92
2023/01/26 13:18:03;;;;;;;37.13;13.30;;;;;;;0.05;100.00;101219.91;6302185;28;20036;-92
2023/01/26 13:21:07;;;;;;;40.88;14.05;;;;;;;0.00;100.00;101230.22;6303202;28;20047;-92
2023/01/26 13:24:27;;;;;;;43.08;12.88;;;;;;;-0.07;100.00;101223.59;6309464;28;20036;-92
2023/01/26 13:27:31;;;;;;;37.28;14.25;;;;;;;-0.04;100.00;101215.88;6313818;28;20048;-92
2023/01/26 13:30:48;;;;;;;39.50;15.15;;;;;;;-0.03;100.00;101215.00;6314257;28;20036;-91
2023/01/26 13:33:51;;;;;;;33.97;13.88;;;;;;;0.05;100.00;101215.66;6303111;28;20051;-92
2023/01/26 13:36:58;;;;;;;35.60;11.73;;;;;;;0.07;100.00;101218.16;6313862;28;20047;-92
2023/01/26 13:40:32;;;;;;;34.80;13.90;;;;;;;0.08;100.00;101217.31;6300210;28;20048;-92
2023/01/26 13:43:38;;;;;;;35.10;13.75;;;;;;;0.08;100.00;101233.41;6312595;28;20040;-92
2023/01/26 13:46:51;;;;;;;34.33;14.07;;;;;;;-0.02;100.00;101214.16;6307696;28;20040;-92
2023/01/26 13:49:53;;;;;;;34.63;13.52;;;;;;;-0.03;100.00;101212.44;6310914;28;20029;-92
2023/01/26 13:52:55;;;;;;;29.23;11.55;;;;;;;0.03;100.00;101219.13;6305375;28;20627;-92
2023/01/26 13:55:58;;;;;;;37.22;13.23;;;;;;;0.02;100.00;101220.81;6280743;28;20498;-92
2023/01/26 13:59:13;;;;;;;30.00;12.65;;;;;;;0.04;100.00;101219.06;6306346;28;20213;-92
2023/01/26 14:02:37;;;;;;;38.63;13.32;;;;;;;0.06;100.00;101224.97;6309730;28;20040;-91
2023/01/26 14:05:39;;;;;;;33.55;12.60;;;;;;;0.00;100.00;101222.59;6306311;28;20254;-92
2023/01/26 14:08:54;;;;;;;29.40;11.25;;;;;;;-0.05;100.00;101237.09;6302195;28;20417;-85
2023/01/26 14:12:25;;;;;;;39.53;13.23;;;;;;;-0.13;100.00;101229.66;6311377;28;20036;-91
2023/01/26 14:15:31;;;;;;;33.40;12.50;;;;;;;-0.10;100.00;101233.81;6312305;28;20112;-92
2023/01/26 14:18:33;;;;;;;34.05;11.98;;;;;;;-0.16;100.00;101239.91;6311482;28;20583;-91
2023/01/26 14:21:54;;;;;;;33.75;13.35;;;;;;;-0.12;100.00;101244.06;6309002;28;20127;-92
2023/01/26 14:24:56;;;;;;;33.00;12.95;;;;;;;-0.12;100.00;101251.69;6303585;28;20044;-91
2023/01/26 14:27:58;;;;;;;34.08;13.10;;;;;;;-0.13;100.00;101256.81;6303581;28;20118;-92
2023/01/26 14:31:06;;;;;;;34.15;10.70;;;;;;;-0.11;100.00;101253.34;6313604;28;20056;-92
2023/01/26 14:34:10;;;;;;;33.17;11.05;;;;;;;-0.17;100.00;101255.19;6298444;28;20032;-91
2023/01/26 14:37:16;;;;;;;30.48;11.80;;;;;;;-0.24;100.00;101252.78;6294137;28;20041;-92
2023/01/26 14:40:22;;;;;;;32.15;12.65;;;;;;;-0.18;100.00;101256.06;6297097;28;20040;-92
2023/01/26 14:43:26;;;;;;;32.00;11.45;;;;;;;-0.18;100.00;101256.06;6301004;28;20040;-92
2023/01/26 14:46:52;;;;;;;30.02;11.68;;;;;;;-0.15;100.00;101254.31;6310824;28;20040;-92
2023/01/26 14:49:57;;;;;;;28.15;10.70;;;;;;;-0.13;100.00;101254.25;6311858;28;20044;-92